メインページ
METAR-TAF:

METAR-TAF

空港 :

シドニー国際空港

シドニー, オーストラリア

緯度: 33-57S, 経度: 151-11E, 海抜: 6m

現時点の気象観測

当レポートは29分前の12:30(UTC)に作成
南/南西の風 8kt
気温 15°C
湿度 82%
気圧 1027 hPa
視程10km以上

METAR: YSSY 241230Z AUTO 21008KT 9999 // NCD 15/12 Q1027 RF00.0/000.0

時間: 22:59 (12:59 UTC)

予報

当レポートは1時間48分前の11:11(UTC)に作成
予報は24日の 12時(UTC)から 25日の 18時(UTC)まで有効
西/南西の風 8kt
視程10km以上
高度3000ftの雲は散在している
24日の 1300時(UTC)から
北西の風 8kt
視程10km以上
高度3000ftの雲は散在している
25日の 0200時(UTC)から
の風 8kt
視程10km以上
高度2500ftの雲は散在している

TAF: YSSY 241111Z 2412/2518 24008KT 9999 SCT030 FM241300 31008KT 9999 SCT030 FM250200 17008KT 9999 SCT025

4,000以上の空港の気象観測と天気予報(METAR報とTAF報)

利用可能な観測所は地図上に黄色い丸と赤い丸で示す。

丸の上にカーソルを重ねると観測所名を参照できる。

次にクリックすると気象観測と天気予報を参照できる。

マップの切り替え:黒色「×」印の緑ボタンをクリックして拡大、「-」印の緑ボタンをクリックして縮小、緑色の三角印をクリックして隣りの地図に切り替え


METAR-TAF: